Time,TemperatureF,DewpointF,PressureIn,WindDirection,WindDirectionDegrees,WindSpeedMPH,WindSpeedGustMPH,Humidity,HourlyPrecipIn,Conditions,Clouds,dailyrainin,SolarRadiationWatts/m^2,SoftwareType,DateUTC
2013-08-25 00:01:00,57.6,54.1,30.34,SE,130,0.0,0.0,88,0.00,RA,,0.00,0.0,WeatherDisplay:10.37,2013-08-25 04:01:00,
2013-08-25 00:02:00,57.6,54.1,30.34,SE,130,0.0,0.0,88,0.00,RA,,0.00,0.0,WeatherDisplay:10.37,2013-08-25 04:02:00,
2013-08-25 00:03:00,57.6,54.1,30.34,SE,130,0.0,0.0,88,0.00,RA,,0.00,0.0,WeatherDisplay:10.37,2013-08-25 04:03:00,
2013-08-25 00:08:00,57.5,54.0,30.34,SE,130,0.0,0.0,88,0.00,RA,,0.00,0.0,WeatherDisplay:10.37,2013-08-25 04:08:00,
2013-08-25 00:13:00,57.5,54.3,30.34,SE,130,0.0,0.0,89,0.00,CLR,,0.00,0.0,WeatherDisplay:10.37,2013-08-25 04:13:00,
2013-08-25 00:18:00,57.5,54.3,30.34,SE,130,0.0,0.0,89,0.00,CLR,,0.00,0.0,WeatherDisplay:10.37,2013-08-25 04:18:00,
2013-08-25 00:23:00,57.3,54.1,30.34,SE,130,0.0,0.0,89,0.00,CLR,,0.00,0.0,WeatherDisplay:10.37,2013-08-25 04:23:00,
2013-08-25 00:28:00,57.2,54.0,30.34,SE,130,0.0,0.0,89,0.00,CLR,,0.00,0.0,WeatherDisplay:10.37,2013-08-25 04:28:00,
2013-08-25 00:33:00,57.0,53.8,30.34,SE,130,0.0,0.0,89,0.00,CLR,,0.00,0.0,WeatherDisplay:10.37,2013-08-25 04:33:00,
2013-08-25 00:38:00,56.9,53.7,30.34,SE,130,0.0,0.0,89,0.00,CLR,,0.00,0.0,WeatherDisplay:10.37,2013-08-25 04:38:00,
2013-08-25 00:43:00,56.7,53.5,30.33,SE,130,0.0,0.0,89,0.00,CLR,,0.00,0.0,WeatherDisplay:10.37,2013-08-25 04:43:00,
2013-08-25 00:48:00,56.6,53.4,30.33,SE,130,0.0,0.0,89,0.00,CLR,,0.00,0.0,WeatherDisplay:10.37,2013-08-25 04:48:00,
2013-08-25 00:53:00,56.5,53.3,30.33,SE,130,0.0,0.0,89,0.00,CLR,,0.00,0.0,WeatherDisplay:10.37,2013-08-25 04:53:00,
2013-08-25 00:58:00,56.5,53.3,30.34,SE,130,0.0,0.0,89,0.00,CLR,,0.00,0.0,WeatherDisplay:10.37,2013-08-25 04:58:00,
2013-08-25 01:03:00,56.5,53.3,30.33,SE,130,0.0,0.0,89,0.00,CLR,,0.00,0.0,WeatherDisplay:10.37,2013-08-25 05:03:00,
2013-08-25 01:08:00,56.5,53.3,30.34,SE,130,0.0,0.0,89,0.00,CLR,,0.00,0.0,WeatherDisplay:10.37,2013-08-25 05:08:00,
2013-08-25 01:13:00,56.5,53.3,30.34,SE,130,0.0,0.0,89,0.00,CLR,,0.00,0.0,WeatherDisplay:10.37,2013-08-25 05:13:00,
2013-08-25 01:18:00,56.2,53.0,30.34,SE,130,0.0,0.0,89,0.00,CLR,,0.00,0.0,WeatherDisplay:10.37,2013-08-25 05:18:00,
2013-08-25 01:23:00,55.9,52.7,30.34,SE,130,0.0,0.0,89,0.00,CLR,,0.00,0.0,WeatherDisplay:10.37,2013-08-25 05:23:00,
2013-08-25 01:28:00,56.0,53.1,30.33,SE,130,0.0,0.0,90,0.00,CLR,,0.00,0.0,WeatherDisplay:10.37,2013-08-25 05:28:00,
2013-08-25 01:33:00,56.0,52.8,30.33,SE,130,0.0,0.0,89,0.00,CLR,,0.00,0.0,WeatherDisplay:10.37,2013-08-25 05:33:00,
2013-08-25 01:38:00,55.9,53.0,30.33,SE,130,0.0,0.0,90,0.00,CLR,,0.00,0.0,WeatherDisplay:10.37,2013-08-25 05:38:00,
2013-08-25 01:43:00,56.0,53.1,30.33,SE,130,0.0,0.0,90,0.00,CLR,,0.00,0.0,WeatherDisplay:10.37,2013-08-25 05:43:00,
2013-08-25 01:48:00,56.0,53.1,30.33,SE,130,0.0,0.0,90,0.00,CLR,,0.00,0.0,WeatherDisplay:10.37,2013-08-25 05:48:00,
2013-08-25 01:53:00,55.9,53.0,30.33,SE,130,0.0,0.0,90,0.00,CLR,,0.00,0.0,WeatherDisplay:10.37,2013-08-25 05:53:00,
2013-08-25 01:58:00,55.9,53.0,30.33,SE,130,0.0,0.0,90,0.00,CLR,,0.00,0.0,WeatherDisplay:10.37,2013-08-25 05:58:00,
2013-08-25 02:03:00,55.9,53.0,30.33,SE,130,0.0,0.0,90,0.00,CLR,,0.00,0.0,WeatherDisplay:10.37,2013-08-25 06:03:00,
2013-08-25 02:08:00,56.2,53.3,30.33,SE,130,0.0,0.0,90,0.00,CLR,,0.00,0.0,WeatherDisplay:10.37,2013-08-25 06:08:00,
2013-08-25 02:13:00,56.0,53.1,30.33,SE,130,0.0,0.0,90,0.00,CLR,,0.00,0.0,WeatherDisplay:10.37,2013-08-25 06:13:00,
2013-08-25 02:18:00,55.9,53.0,30.33,SE,130,0.0,0.0,90,0.00,CLR,,0.00,0.0,WeatherDisplay:10.37,2013-08-25 06:18:00,
2013-08-25 02:23:00,55.9,53.0,30.33,SE,130,0.0,0.0,90,0.00,CLR,,0.00,0.0,WeatherDisplay:10.37,2013-08-25 06:23:00,
2013-08-25 02:28:00,55.9,53.3,30.33,SE,130,0.0,0.0,91,0.00,CLR,,0.00,0.0,WeatherDisplay:10.37,2013-08-25 06:28:00,
2013-08-25 02:33:00,55.9,53.0,30.33,SE,130,0.0,0.0,90,0.00,CLR,,0.00,0.0,WeatherDisplay:10.37,2013-08-25 06:33:00,
2013-08-25 02:38:00,56.0,53.4,30.33,SE,130,0.0,0.0,91,0.00,CLR,,0.00,0.0,WeatherDisplay:10.37,2013-08-25 06:38:00,
2013-08-25 02:43:00,55.9,53.3,30.34,SE,130,0.0,0.0,91,0.00,CLR,,0.00,0.0,WeatherDisplay:10.37,2013-08-25 06:43:00,
2013-08-25 02:48:00,55.7,53.1,30.34,SE,130,0.0,0.0,91,0.00,CLR,,0.00,0.0,WeatherDisplay:10.37,2013-08-25 06:48:00,
2013-08-25 02:53:00,55.7,53.1,30.34,SE,130,0.0,0.0,91,0.00,CLR,,0.00,0.0,WeatherDisplay:10.37,2013-08-25 06:53:00,
2013-08-25 02:58:00,55.6,53.0,30.33,SE,130,0.0,0.0,91,0.00,CLR,,0.00,0.0,WeatherDisplay:10.37,2013-08-25 06:58:00,
2013-08-25 03:03:00,55.4,52.8,30.33,SE,130,0.0,0.0,91,0.00,CLR,,0.00,0.0,WeatherDisplay:10.37,2013-08-25 07:03:00,
2013-08-25 03:08:00,55.4,52.8,30.33,SE,130,0.0,0.0,91,0.00,CLR,,0.00,0.0,WeatherDisplay:10.37,2013-08-25 07:08:00,
2013-08-25 03:13:00,55.3,52.7,30.33,SE,130,0.0,0.0,91,0.00,SCT,,0.00,0.0,WeatherDisplay:10.37,2013-08-25 07:13:00,
2013-08-25 03:18:00,55.4,52.8,30.34,SE,130,0.0,0.0,91,0.00,SCT,,0.00,0.0,WeatherDisplay:10.37,2013-08-25 07:18:00,
2013-08-25 03:23:00,55.3,52.7,30.34,SE,130,0.0,0.0,91,0.00,SCT,,0.00,0.0,WeatherDisplay:10.37,2013-08-25 07:23:00,
2013-08-25 03:28:00,55.1,52.5,30.34,SE,130,0.0,0.0,91,0.00,SCT,,0.00,0.0,WeatherDisplay:10.37,2013-08-25 07:28:00,
2013-08-25 03:33:00,55.0,52.4,30.34,SE,130,0.0,0.0,91,0.00,BKN,,0.00,0.0,WeatherDisplay:10.37,2013-08-25 07:33:00,
2013-08-25 03:38:00,54.8,52.2,30.34,SE,130,0.0,0.0,91,0.00,BKN,,0.00,0.0,WeatherDisplay:10.37,2013-08-25 07:38:00,
2013-08-25 03:43:00,55.0,52.4,30.34,SE,130,0.0,0.0,91,0.00,BKN,,0.00,0.0,WeatherDisplay:10.37,2013-08-25 07:43:00,
2013-08-25 03:48:00,54.8,52.2,30.34,SE,130,0.0,0.0,91,0.00,BKN,,0.00,0.0,WeatherDisplay:10.37,2013-08-25 07:48:00,
2013-08-25 03:53:00,55.3,52.7,30.34,SE,130,0.0,0.0,91,0.00,BKN,,0.00,0.0,WeatherDisplay:10.37,2013-08-25 07:53:00,
2013-08-25 03:58:00,55.7,53.1,30.34,SE,130,0.0,0.0,91,0.00,BKN,,0.00,0.0,WeatherDisplay:10.37,2013-08-25 07:58:00,
2013-08-25 04:03:00,55.4,52.8,30.34,SE,130,0.0,0.0,91,0.00,BKN,,0.00,0.0,WeatherDisplay:10.37,2013-08-25 08:03:00,
2013-08-25 04:08:00,55.0,52.4,30.34,SE,130,0.0,0.0,91,0.00,BKN,,0.00,0.0,WeatherDisplay:10.37,2013-08-25 08:08:00,
2013-08-25 04:13:00,54.8,52.2,30.34,SE,130,0.0,0.0,91,0.00,SCT,,0.00,0.0,WeatherDisplay:10.37,2013-08-25 08:13:00,
2013-08-25 04:18:00,55.0,52.4,30.34,SE,130,0.0,0.0,91,0.00,SCT,,0.00,0.0,WeatherDisplay:10.37,2013-08-25 08:18:00,
2013-08-25 04:23:00,55.0,52.4,30.35,SE,130,0.0,0.0,91,0.00,SCT,,0.00,0.0,WeatherDisplay:10.37,2013-08-25 08:23:00,
2013-08-25 04:28:00,54.8,52.2,30.35,SE,130,0.0,0.0,91,0.00,SCT,,0.00,0.0,WeatherDisplay:10.37,2013-08-25 08:28:00,
2013-08-25 04:33:00,54.7,52.1,30.35,SE,130,0.0,0.0,91,0.00,SCT,,0.00,0.0,WeatherDisplay:10.37,2013-08-25 08:33:00,
2013-08-25 04:38:00,54.5,51.9,30.35,SE,130,0.0,0.0,91,0.00,SCT,,0.00,0.0,WeatherDisplay:10.37,2013-08-25 08:38:00,
2013-08-25 04:43:00,54.5,51.9,30.35,SE,130,0.0,0.0,91,0.00,SCT,,0.00,0.0,WeatherDisplay:10.37,2013-08-25 08:43:00,
2013-08-25 04:48:00,54.5,51.9,30.35,SE,130,0.0,0.0,91,0.00,SCT,,0.00,0.0,WeatherDisplay:10.37,2013-08-25 08:48:00,
2013-08-25 04:53:00,54.5,51.9,30.35,SE,130,0.0,0.0,91,0.00,SCT,,0.00,0.0,WeatherDisplay:10.37,2013-08-25 08:53:00,
2013-08-25 04:58:00,54.5,51.9,30.35,SE,130,0.0,0.0,91,0.00,SCT,,0.00,0.0,WeatherDisplay:10.37,2013-08-25 08:58:00,
2013-08-25 05:03:00,54.4,51.8,30.35,SE,130,0.0,0.0,91,0.00,SCT,,0.00,0.0,WeatherDisplay:10.37,2013-08-25 09:03:00,
2013-08-25 05:08:00,54.4,51.8,30.36,SE,130,0.0,0.0,91,0.00,SCT,,0.00,0.0,WeatherDisplay:10.37,2013-08-25 09:08:00,
2013-08-25 05:13:00,54.2,51.6,30.36,SE,130,0.0,0.0,91,0.00,SCT,,0.00,0.0,WeatherDisplay:10.37,2013-08-25 09:13:00,
2013-08-25 05:18:00,54.1,51.5,30.36,SE,130,0.0,0.0,91,0.00,SCT,,0.00,0.0,WeatherDisplay:10.37,2013-08-25 09:18:00,
2013-08-25 05:23:00,53.9,51.3,30.36,SE,130,0.0,0.0,91,0.00,SCT,,0.00,0.0,WeatherDisplay:10.37,2013-08-25 09:23:00,
2013-08-25 05:28:00,53.9,51.3,30.36,SE,130,0.0,0.0,91,0.00,SCT,,0.00,0.0,WeatherDisplay:10.37,2013-08-25 09:28:00,
2013-08-25 05:33:00,53.8,51.2,30.36,SE,130,0.0,0.0,91,0.00,SCT,,0.00,0.0,WeatherDisplay:10.37,2013-08-25 09:33:00,
2013-08-25 05:38:00,53.6,51.0,30.36,SE,130,0.0,0.0,91,0.00,SCT,,0.00,0.0,WeatherDisplay:10.37,2013-08-25 09:38:00,
2013-08-25 05:43:00,53.6,51.0,30.37,SE,130,0.0,0.0,91,0.00,SCT,,0.00,0.0,WeatherDisplay:10.37,2013-08-25 09:43:00,
2013-08-25 05:48:00,53.6,51.0,30.37,SE,130,0.0,0.0,91,0.00,SCT,,0.00,0.0,WeatherDisplay:10.37,2013-08-25 09:48:00,
2013-08-25 05:53:00,53.5,50.9,30.37,SE,130,0.0,0.0,91,0.00,SCT,,0.00,0.0,WeatherDisplay:10.37,2013-08-25 09:53:00,
2013-08-25 05:58:00,53.3,50.7,30.38,SE,130,0.0,0.0,91,0.00,SCT,,0.00,0.0,WeatherDisplay:10.37,2013-08-25 09:58:00,
2013-08-25 06:03:00,53.3,50.7,30.38,SE,130,0.0,0.0,91,0.00,SCT,,0.00,0.0,WeatherDisplay:10.37,2013-08-25 10:03:00,
2013-08-25 06:08:00,53.2,50.6,30.39,SE,130,0.0,0.0,91,0.00,SCT,,0.00,0.0,WeatherDisplay:10.37,2013-08-25 10:08:00,
2013-08-25 06:13:00,53.1,50.5,30.39,SE,130,0.0,0.0,91,0.00,SCT,,0.00,0.0,WeatherDisplay:10.37,2013-08-25 10:13:00,
2013-08-25 06:18:00,53.1,50.5,30.39,SE,130,0.0,0.0,91,0.00,SCT,,0.00,0.0,WeatherDisplay:10.37,2013-08-25 10:18:00,
2013-08-25 06:23:00,53.1,50.8,30.39,SE,130,0.0,0.0,92,0.00,SCT,,0.00,0.0,WeatherDisplay:10.37,2013-08-25 10:23:00,
2013-08-25 06:28:00,53.2,50.9,30.39,SE,130,0.0,0.0,92,0.00,SCT,,0.00,0.0,WeatherDisplay:10.37,2013-08-25 10:28:00,
2013-08-25 06:33:00,53.2,50.9,30.39,SE,130,0.0,0.0,92,0.00,SCT,,0.00,0.0,WeatherDisplay:10.37,2013-08-25 10:33:00,
2013-08-25 06:38:00,53.2,50.9,30.39,SE,130,0.0,0.0,92,0.00,SCT,,0.00,0.0,WeatherDisplay:10.37,2013-08-25 10:38:00,
2013-08-25 06:43:00,53.1,50.8,30.39,SE,130,0.0,0.0,92,0.00,SCT,,0.00,9.0,WeatherDisplay:10.37,2013-08-25 10:43:00,
2013-08-25 06:48:00,53.1,50.8,30.39,SE,130,0.0,0.0,92,0.00,SCT,,0.00,11.0,WeatherDisplay:10.37,2013-08-25 10:48:00,
2013-08-25 06:53:00,53.2,50.9,30.39,SE,130,0.0,0.0,92,0.00,SCT,,0.00,14.0,WeatherDisplay:10.37,2013-08-25 10:53:00,
2013-08-25 06:58:00,53.2,50.9,30.39,SE,130,0.0,0.0,92,0.00,SCT,,0.00,19.0,WeatherDisplay:10.37,2013-08-25 10:58:00,
2013-08-25 07:03:00,53.2,50.9,30.40,SE,130,0.0,0.0,92,0.00,SCT,,0.00,21.0,WeatherDisplay:10.37,2013-08-25 11:03:00,
2013-08-25 07:08:00,53.5,51.2,30.39,SE,130,0.0,0.0,92,0.00,SCT,,0.00,26.0,WeatherDisplay:10.37,2013-08-25 11:08:00,
2013-08-25 07:13:00,53.9,51.6,30.39,SE,130,0.0,0.0,92,0.00,SCT,,0.00,44.0,WeatherDisplay:10.37,2013-08-25 11:13:00,
2013-08-25 07:18:00,54.1,51.8,30.40,SE,130,0.0,0.0,92,0.00,SCT,,0.00,39.0,WeatherDisplay:10.37,2013-08-25 11:18:00,
2013-08-25 07:23:00,54.2,51.9,30.40,SE,130,0.0,0.0,92,0.00,SCT,,0.00,69.0,WeatherDisplay:10.37,2013-08-25 11:23:00,
2013-08-25 07:28:00,54.8,52.5,30.40,SE,130,0.0,0.0,92,0.00,SCT,,0.00,86.0,WeatherDisplay:10.37,2013-08-25 11:28:00,
2013-08-25 07:33:00,56.0,53.7,30.40,SE,130,0.0,0.0,92,0.00,SCT,,0.00,97.0,WeatherDisplay:10.37,2013-08-25 11:33:00,
2013-08-25 07:38:00,56.5,54.2,30.41,SE,130,0.0,0.0,92,0.00,SCT,,0.00,123.0,WeatherDisplay:10.37,2013-08-25 11:38:00,
2013-08-25 07:43:00,57.2,54.9,30.41,SE,130,0.0,0.0,92,0.00,SCT,,0.00,141.0,WeatherDisplay:10.37,2013-08-25 11:43:00,
2013-08-25 07:48:00,57.3,55.0,30.41,SE,130,0.0,0.0,92,0.00,SCT,,0.00,153.0,WeatherDisplay:10.37,2013-08-25 11:48:00,
2013-08-25 07:53:00,58.0,55.7,30.41,SE,130,0.0,0.0,92,0.00,SCT,,0.00,178.0,WeatherDisplay:10.37,2013-08-25 11:53:00,
2013-08-25 07:58:00,58.9,56.6,30.41,SE,130,0.0,0.0,92,0.00,SCT,,0.00,192.0,WeatherDisplay:10.37,2013-08-25 11:58:00,
2013-08-25 08:03:00,59.8,57.5,30.41,SE,130,0.0,0.0,92,0.00,SCT,,0.00,204.0,WeatherDisplay:10.37,2013-08-25 12:03:00,
2013-08-25 08:08:00,60.2,57.9,30.41,SE,130,0.0,0.0,92,0.00,SCT,,0.00,207.0,WeatherDisplay:10.37,2013-08-25 12:08:00,
2013-08-25 08:13:00,60.5,58.2,30.42,SE,130,0.0,0.0,92,0.00,SCT,,0.00,223.0,WeatherDisplay:10.37,2013-08-25 12:13:00,
2013-08-25 08:18:00,60.7,58.4,30.41,SSE,167,0.0,0.0,92,0.00,SCT,,0.00,223.0,WeatherDisplay:10.37,2013-08-25 12:18:00,
2013-08-25 08:23:00,60.9,58.6,30.41,SSE,168,2.4,4.6,92,0.00,SCT,,0.00,253.0,WeatherDisplay:10.37,2013-08-25 12:23:00,
2013-08-25 08:28:00,61.2,58.9,30.41,South,169,0.7,3.5,92,0.00,SCT,,0.00,253.0,WeatherDisplay:10.37,2013-08-25 12:28:00,
2013-08-25 08:33:00,61.5,59.2,30.42,South,169,0.0,0.0,92,0.00,SCT,,0.00,278.0,WeatherDisplay:10.37,2013-08-25 12:33:00,
2013-08-25 08:38:00,62.1,59.7,30.42,SSE,168,0.6,1.5,92,0.00,SCT,,0.00,301.0,WeatherDisplay:10.37,2013-08-25 12:38:00,
2013-08-25 08:44:00,62.6,60.2,30.42,SSE,168,0.1,1.5,92,0.00,SCT,,0.00,315.0,WeatherDisplay:10.37,2013-08-25 12:44:00,
2013-08-25 08:49:00,62.9,60.5,30.41,South,171,6.5,9.2,92,0.00,SCT,,0.00,338.0,WeatherDisplay:10.37,2013-08-25 12:49:00,
2013-08-25 08:54:00,62.9,60.2,30.42,SSW,197,4.2,4.6,91,0.00,SCT,,0.00,371.0,WeatherDisplay:10.37,2013-08-25 12:54:00,
2013-08-25 08:59:00,63.1,60.4,30.42,SW,215,4.0,5.8,91,0.00,SCT,,0.00,390.0,WeatherDisplay:10.37,2013-08-25 12:59:00,
2013-08-25 09:04:00,63.2,60.2,30.42,SW,217,6.9,8.1,90,0.00,SCT,,0.00,371.0,WeatherDisplay:10.37,2013-08-25 13:04:00,
2013-08-25 09:09:00,63.5,60.2,30.42,SW,233,4.7,8.1,89,0.00,SCT,,0.00,432.0,WeatherDisplay:10.37,2013-08-25 13:09:00,
2013-08-25 09:14:00,64.2,60.6,30.42,SW,233,2.3,5.8,88,0.00,SCT,,0.00,438.0,WeatherDisplay:10.37,2013-08-25 13:14:00,
2013-08-25 09:19:00,64.5,60.2,30.42,SW,234,6.3,6.3,86,0.00,SCT,,0.00,452.0,WeatherDisplay:10.37,2013-08-25 13:19:00,
2013-08-25 09:24:00,64.8,59.9,30.42,SW,220,0.9,4.6,84,0.00,SCT,,0.00,448.0,WeatherDisplay:10.37,2013-08-25 13:24:00,
2013-08-25 09:29:00,65.3,60.3,30.42,SW,220,1.8,4.5,84,0.00,SCT,,0.00,475.0,WeatherDisplay:10.37,2013-08-25 13:29:00,
2013-08-25 09:34:00,66.1,60.8,30.41,SW,220,0.0,1.2,83,0.00,SCT,,0.00,504.0,WeatherDisplay:10.37,2013-08-25 13:34:00,
2013-08-25 09:39:00,66.9,61.2,30.41,SW,219,0.2,1.5,82,0.00,SCT,,0.00,464.0,WeatherDisplay:10.37,2013-08-25 13:39:00,
2013-08-25 09:44:00,67.3,61.3,30.41,SW,219,2.2,3.5,81,0.00,SCT,,0.00,534.0,WeatherDisplay:10.37,2013-08-25 13:44:00,
2013-08-25 09:49:00,67.8,61.0,30.41,South,187,3.3,6.0,79,0.00,SCT,,0.00,582.0,WeatherDisplay:10.37,2013-08-25 13:49:00,
2013-08-25 09:54:00,68.6,61.5,30.41,South,187,0.0,0.0,78,0.00,SCT,,0.00,536.0,WeatherDisplay:10.37,2013-08-25 13:54:00,
2013-08-25 09:59:00,69.3,61.0,30.41,South,191,2.6,6.0,75,0.00,SCT,,0.00,466.0,WeatherDisplay:10.37,2013-08-25 13:59:00,
2013-08-25 10:04:00,69.1,60.8,30.41,South,190,0.3,4.6,75,0.00,SCT,,0.00,497.0,WeatherDisplay:10.37,2013-08-25 14:04:00,
2013-08-25 10:09:00,69.4,60.8,30.41,South,190,0.4,3.5,74,0.00,SCT,,0.00,513.0,WeatherDisplay:10.37,2013-08-25 14:09:00,
2013-08-25 10:14:00,69.9,61.6,30.41,South,190,0.5,3.0,75,0.00,SCT,,0.00,548.0,WeatherDisplay:10.37,2013-08-25 14:14:00,
2013-08-25 10:19:00,69.9,60.8,30.41,SSW,207,1.6,5.8,73,0.00,SCT,,0.00,571.0,WeatherDisplay:10.37,2013-08-25 14:19:00,
2013-08-25 10:24:00,70.8,62.1,30.41,SSW,207,0.6,3.0,74,0.00,SCT,,0.00,571.0,WeatherDisplay:10.37,2013-08-25 14:24:00,
2013-08-25 10:29:00,71.8,62.7,30.41,SSW,207,0.1,1.5,73,0.00,SCT,,0.00,619.0,WeatherDisplay:10.37,2013-08-25 14:29:00,
2013-08-25 10:34:00,71.6,61.3,30.40,SSW,212,0.8,5.8,70,0.00,BKN,,0.00,526.0,WeatherDisplay:10.37,2013-08-25 14:34:00,
2013-08-25 10:39:00,72.3,62.4,30.40,SSW,197,0.2,1.5,71,0.00,BKN,,0.00,719.0,WeatherDisplay:10.37,2013-08-25 14:39:00,
2013-08-25 10:44:00,72.7,61.5,30.40,South,180,0.0,0.0,68,0.00,BKN,,0.00,434.0,WeatherDisplay:10.37,2013-08-25 14:44:00,
2013-08-25 10:49:00,72.8,61.2,30.40,South,186,0.3,4.6,67,0.00,BKN,,0.00,636.0,WeatherDisplay:10.37,2013-08-25 14:49:00,
2013-08-25 10:54:00,73.2,61.2,30.40,South,175,0.8,3.5,66,0.00,BKN,,0.00,754.0,WeatherDisplay:10.37,2013-08-25 14:54:00,
2013-08-25 10:59:00,73.9,61.4,30.40,South,173,2.8,6.0,65,0.00,BKN,,0.00,582.0,WeatherDisplay:10.37,2013-08-25 14:59:00,
2013-08-25 11:04:00,74.2,62.1,30.40,South,171,2.2,4.6,66,0.00,BKN,,0.00,735.0,WeatherDisplay:10.37,2013-08-25 15:04:00,
2013-08-25 11:09:00,74.0,60.2,30.40,SW,218,8.4,9.0,62,0.00,BKN,,0.00,779.0,WeatherDisplay:10.37,2013-08-25 15:09:00,
2013-08-25 11:14:00,73.9,59.6,30.40,SW,225,3.5,8.1,61,0.00,BKN,,0.00,721.0,WeatherDisplay:10.37,2013-08-25 15:14:00,
2013-08-25 11:19:00,74.0,60.6,30.40,SSW,209,1.2,3.5,63,0.00,BKN,,0.00,621.0,WeatherDisplay:10.37,2013-08-25 15:19:00,
2013-08-25 11:24:00,74.7,61.7,30.40,South,171,1.0,3.0,64,0.00,BKN,,0.00,504.0,WeatherDisplay:10.37,2013-08-25 15:24:00,
2013-08-25 11:29:00,74.7,60.8,30.40,SSE,159,1.2,3.5,62,0.00,BKN,,0.00,833.0,WeatherDisplay:10.37,2013-08-25 15:29:00,
2013-08-25 11:34:00,74.9,60.1,30.40,South,184,2.2,5.8,60,0.00,BKN,,0.00,306.0,WeatherDisplay:10.37,2013-08-25 15:34:00,
2013-08-25 11:39:00,75.1,60.7,30.39,SSE,156,3.1,5.8,61,0.00,BKN,,0.00,596.0,WeatherDisplay:10.37,2013-08-25 15:39:00,
2013-08-25 11:44:00,74.7,59.9,30.39,SW,230,2.2,9.2,60,0.00,BKN,,0.00,805.0,WeatherDisplay:10.37,2013-08-25 15:44:00,
2013-08-25 11:49:00,74.9,60.5,30.39,ESE,106,2.8,3.5,61,0.00,BKN,,0.00,796.0,WeatherDisplay:10.37,2013-08-25 15:49:00,
2013-08-25 11:54:00,75.3,59.5,30.39,SW,215,6.9,9.2,58,0.00,BKN,,0.00,626.0,WeatherDisplay:10.37,2013-08-25 15:54:00,
2013-08-25 11:59:00,75.6,60.7,30.39,SSE,162,5.6,9.0,60,0.00,BKN,,0.00,773.0,WeatherDisplay:10.37,2013-08-25 15:59:00,
2013-08-25 12:04:00,75.8,60.0,30.39,SW,215,4.1,6.0,58,0.00,BKN,,0.00,807.0,WeatherDisplay:10.37,2013-08-25 16:04:00,
2013-08-25 12:09:00,76.0,60.6,30.39,South,183,5.2,6.0,59,0.00,BKN,,0.00,918.0,WeatherDisplay:10.37,2013-08-25 16:09:00,
2013-08-25 12:14:00,75.8,58.5,30.39,SSW,205,1.6,8.1,55,0.00,BKN,,0.00,193.0,WeatherDisplay:10.37,2013-08-25 16:14:00,
2013-08-25 12:19:00,75.4,59.1,30.38,SSW,207,5.6,8.1,57,0.00,BKN,,0.00,195.0,WeatherDisplay:10.37,2013-08-25 16:19:00,
2013-08-25 12:24:00,74.7,57.5,30.38,SW,220,2.7,4.6,55,0.00,BKN,,0.00,206.0,WeatherDisplay:10.37,2013-08-25 16:24:00,
2013-08-25 12:29:00,74.6,57.9,30.38,SW,227,4.8,9.0,56,0.00,BKN,,0.00,294.0,WeatherDisplay:10.37,2013-08-25 16:29:00,
2013-08-25 12:34:00,74.7,56.9,30.38,SW,227,0.2,1.2,54,0.00,BKN,,0.00,244.0,WeatherDisplay:10.37,2013-08-25 16:34:00,
2013-08-25 12:39:00,75.4,58.6,30.38,SW,223,5.9,11.5,56,0.00,BKN,,0.00,889.0,WeatherDisplay:10.37,2013-08-25 16:39:00,
2013-08-25 12:44:00,76.0,58.7,30.38,SW,216,1.2,3.5,55,0.00,BKN,,0.00,888.0,WeatherDisplay:10.37,2013-08-25 16:44:00,
2013-08-25 12:49:00,76.5,58.1,30.38,West,267,0.6,4.6,53,0.00,BKN,,0.00,858.0,WeatherDisplay:10.37,2013-08-25 16:49:00,
2013-08-25 12:54:00,76.7,58.8,30.37,West,267,0.0,0.0,54,0.00,BKN,,0.00,856.0,WeatherDisplay:10.37,2013-08-25 16:54:00,
2013-08-25 12:59:00,77.0,57.5,30.37,SW,228,8.4,11.5,51,0.00,BKN,,0.00,919.0,WeatherDisplay:10.37,2013-08-25 16:59:00,
2013-08-25 13:04:00,76.7,57.7,30.37,SW,228,1.5,4.6,52,0.00,BKN,,0.00,912.0,WeatherDisplay:10.37,2013-08-25 17:04:00,
2013-08-25 13:09:00,77.0,57.5,30.37,SSE,165,1.9,4.6,51,0.00,BKN,,0.00,919.0,WeatherDisplay:10.37,2013-08-25 17:09:00,
2013-08-25 13:14:00,77.6,58.0,30.36,SSE,160,0.6,1.5,51,0.00,BKN,,0.00,926.0,WeatherDisplay:10.37,2013-08-25 17:14:00,
2013-08-25 13:19:00,77.7,58.7,30.36,SW,214,3.7,5.8,52,0.00,BKN,,0.00,183.0,WeatherDisplay:10.37,2013-08-25 17:19:00,
2013-08-25 13:24:00,77.2,57.7,30.36,SW,215,4.6,5.8,51,0.00,BKN,,0.00,202.0,WeatherDisplay:10.37,2013-08-25 17:24:00,
2013-08-25 13:29:00,76.7,56.7,30.36,SW,215,0.1,1.2,50,0.00,BKN,,0.00,195.0,WeatherDisplay:10.37,2013-08-25 17:29:00,
2013-08-25 13:34:00,76.8,57.3,30.36,SW,223,7.6,9.2,51,0.00,BKN,,0.00,900.0,WeatherDisplay:10.37,2013-08-25 17:34:00,
2013-08-25 13:39:00,77.2,58.2,30.36,SSW,211,1.1,3.5,52,0.00,BKN,,0.00,970.0,WeatherDisplay:10.37,2013-08-25 17:39:00,
2013-08-25 13:44:00,77.6,59.6,30.36,SW,227,0.0,1.5,54,0.00,BKN,,0.00,912.0,WeatherDisplay:10.37,2013-08-25 17:44:00,
2013-08-25 13:49:00,78.5,59.9,30.36,ESE,103,0.0,0.0,53,0.00,BKN,,0.00,905.0,WeatherDisplay:10.37,2013-08-25 17:49:00,
2013-08-25 13:54:00,78.8,57.4,30.36,ESE,105,1.5,5.8,48,0.00,BKN,,0.00,186.0,WeatherDisplay:10.37,2013-08-25 17:54:00,
2013-08-25 13:59:00,78.3,56.4,30.36,ESE,112,0.0,0.0,47,0.00,BKN,,0.00,255.0,WeatherDisplay:10.37,2013-08-25 17:59:00,
2013-08-25 14:04:00,78.3,57.0,30.35,ESE,113,2.5,3.5,48,0.00,BKN,,0.00,956.0,WeatherDisplay:10.37,2013-08-25 18:04:00,
2013-08-25 14:09:00,78.5,57.2,30.36,ESE,110,1.1,1.5,48,0.00,BKN,,0.00,911.0,WeatherDisplay:10.37,2013-08-25 18:09:00,
2013-08-25 14:14:00,78.8,56.3,30.35,SSE,153,3.5,8.1,46,0.00,BKN,,0.00,875.0,WeatherDisplay:10.37,2013-08-25 18:14:00,
2013-08-25 14:19:00,79.2,54.8,30.35,SSE,150,0.1,3.5,43,0.00,BKN,,0.00,884.0,WeatherDisplay:10.37,2013-08-25 18:19:00,
2013-08-25 14:24:00,79.6,57.0,30.35,SSE,150,0.3,1.5,46,0.00,BKN,,0.00,879.0,WeatherDisplay:10.37,2013-08-25 18:24:00,
2013-08-25 14:29:00,79.2,55.4,30.34,South,169,1.7,4.6,44,0.00,BKN,,0.00,225.0,WeatherDisplay:10.37,2013-08-25 18:29:00,
2013-08-25 14:34:00,79.0,57.6,30.34,South,187,0.1,1.2,48,0.00,BKN,,0.00,842.0,WeatherDisplay:10.37,2013-08-25 18:34:00,
2013-08-25 14:39:00,79.4,56.2,30.34,South,190,0.3,1.5,45,0.00,BKN,,0.00,842.0,WeatherDisplay:10.37,2013-08-25 18:39:00,
2013-08-25 14:44:00,79.4,54.3,30.34,SE,132,0.0,0.0,42,0.00,BKN,,0.00,190.0,WeatherDisplay:10.37,2013-08-25 18:44:00,
2013-08-25 14:49:00,79.6,53.8,30.34,SE,142,1.6,5.8,41,0.00,BKN,,0.00,810.0,WeatherDisplay:10.37,2013-08-25 18:49:00,
2013-08-25 14:54:00,79.8,55.3,30.34,SE,143,0.4,1.5,43,0.00,BKN,,0.00,795.0,WeatherDisplay:10.37,2013-08-25 18:54:00,
2013-08-25 14:59:00,80.1,54.3,30.33,SE,143,0.4,1.5,41,0.00,BKN,,0.00,780.0,WeatherDisplay:10.37,2013-08-25 18:59:00,
2013-08-25 15:04:00,80.3,53.8,30.33,SE,142,1.1,3.5,40,0.00,BKN,,0.00,793.0,WeatherDisplay:10.37,2013-08-25 19:04:00,
2013-08-25 15:09:00,80.3,55.8,30.33,SE,138,1.4,3.5,43,0.00,BKN,,0.00,777.0,WeatherDisplay:10.37,2013-08-25 19:09:00,
2013-08-25 15:14:00,80.1,54.9,30.33,SE,138,0.4,3.5,42,0.00,BKN,,0.00,780.0,WeatherDisplay:10.37,2013-08-25 19:14:00,
2013-08-25 15:19:00,80.3,56.4,30.33,SE,133,3.1,4.6,44,0.00,BKN,,0.00,798.0,WeatherDisplay:10.37,2013-08-25 19:19:00,
2013-08-25 15:24:00,80.7,53.4,30.33,SE,133,0.0,0.0,39,0.00,BKN,,0.00,759.0,WeatherDisplay:10.37,2013-08-25 19:24:00,
2013-08-25 15:29:00,81.1,55.2,30.33,SE,133,0.2,1.2,41,0.00,BKN,,0.00,735.0,WeatherDisplay:10.37,2013-08-25 19:29:00,
2013-08-25 15:34:00,81.6,57.6,30.33,SE,133,0.5,3.5,44,0.00,BKN,,0.00,728.0,WeatherDisplay:10.37,2013-08-25 19:34:00,
2013-08-25 15:39:00,81.2,52.4,30.33,South,190,0.2,1.5,37,0.00,BKN,,0.00,719.0,WeatherDisplay:10.37,2013-08-25 19:39:00,
2013-08-25 15:44:00,81.2,55.3,30.33,SW,229,1.6,4.6,41,0.00,BKN,,0.00,722.0,WeatherDisplay:10.37,2013-08-25 19:44:00,
2013-08-25 15:49:00,81.4,53.4,30.33,SW,229,3.0,6.0,38,0.00,BKN,,0.00,698.0,WeatherDisplay:10.37,2013-08-25 19:49:00,
2013-08-25 15:54:00,81.4,56.1,30.32,SW,229,0.0,0.0,42,0.00,BKN,,0.00,663.0,WeatherDisplay:10.37,2013-08-25 19:54:00,
2013-08-25 15:59:00,81.6,52.8,30.32,SW,233,0.5,1.5,37,0.00,BKN,,0.00,640.0,WeatherDisplay:10.37,2013-08-25 19:59:00,
2013-08-25 16:04:00,81.6,53.5,30.32,SW,233,0.5,1.5,38,0.00,BKN,,0.00,626.0,WeatherDisplay:10.37,2013-08-25 20:04:00,
2013-08-25 16:09:00,82.0,54.6,30.31,SSW,207,0.1,1.2,39,0.00,BKN,,0.00,621.0,WeatherDisplay:10.37,2013-08-25 20:09:00,
2013-08-25 16:14:00,81.8,58.4,30.31,SE,145,0.9,3.5,45,0.00,BKN,,0.00,613.0,WeatherDisplay:10.37,2013-08-25 20:14:00,
2013-08-25 16:19:00,81.6,55.6,30.31,East,84,3.0,5.8,41,0.00,BKN,,0.00,580.0,WeatherDisplay:10.37,2013-08-25 20:19:00,
2013-08-25 16:24:00,81.4,54.8,30.31,East,84,0.0,0.0,40,0.00,BKN,,0.00,563.0,WeatherDisplay:10.37,2013-08-25 20:24:00,
2013-08-25 16:29:00,81.1,53.8,30.31,East,100,4.4,5.8,39,0.00,BKN,,0.00,534.0,WeatherDisplay:10.37,2013-08-25 20:29:00,
2013-08-25 16:34:00,80.9,55.0,30.30,East,100,0.1,1.5,41,0.00,BKN,,0.00,533.0,WeatherDisplay:10.37,2013-08-25 20:34:00,
2013-08-25 16:39:00,80.9,55.7,30.30,East,99,2.6,4.6,42,0.00,BKN,,0.00,503.0,WeatherDisplay:10.37,2013-08-25 20:39:00,
2013-08-25 16:44:00,80.9,54.3,30.30,East,101,0.3,1.5,40,0.00,BKN,,0.00,496.0,WeatherDisplay:10.37,2013-08-25 20:44:00,
2013-08-25 16:49:00,80.9,56.3,30.30,ESE,113,0.7,1.5,43,0.00,BKN,,0.00,485.0,WeatherDisplay:10.37,2013-08-25 20:49:00,
2013-08-25 16:54:00,80.7,53.4,30.30,ESE,114,1.3,4.6,39,0.00,BKN,,0.00,473.0,WeatherDisplay:10.37,2013-08-25 20:54:00,
2013-08-25 16:59:00,80.9,55.7,30.30,ESE,111,0.8,3.5,42,0.00,BKN,,0.00,450.0,WeatherDisplay:10.37,2013-08-25 20:59:00,
2013-08-25 17:04:00,80.7,54.1,30.30,ESE,117,0.6,1.5,40,0.00,BKN,,0.00,438.0,WeatherDisplay:10.37,2013-08-25 21:04:00,
2013-08-25 17:09:00,80.9,56.3,30.30,ESE,117,0.0,0.0,43,0.00,BKN,,0.00,427.0,WeatherDisplay:10.37,2013-08-25 21:09:00,
2013-08-25 17:14:00,80.9,54.3,30.29,ESE,123,2.2,4.6,40,0.00,BKN,,0.00,417.0,WeatherDisplay:10.37,2013-08-25 21:14:00,
2013-08-25 17:19:00,80.5,54.6,30.29,SSE,148,5.6,9.2,41,0.00,BKN,,0.00,403.0,WeatherDisplay:10.37,2013-08-25 21:19:00,
2013-08-25 17:24:00,80.5,56.6,30.29,SSE,148,0.5,3.5,44,0.00,BKN,,0.00,388.0,WeatherDisplay:10.37,2013-08-25 21:24:00,
2013-08-25 17:29:00,80.3,54.5,30.29,SSE,164,0.1,3.5,41,0.00,BKN,,0.00,373.0,WeatherDisplay:10.37,2013-08-25 21:29:00,
2013-08-25 17:34:00,80.3,53.8,30.29,SSE,163,1.0,4.6,40,0.00,BKN,,0.00,339.0,WeatherDisplay:10.37,2013-08-25 21:34:00,
2013-08-25 17:39:00,80.3,54.5,30.29,East,94,4.9,6.0,41,0.00,BKN,,0.00,330.0,WeatherDisplay:10.37,2013-08-25 21:39:00,
2013-08-25 17:44:00,80.3,55.1,30.29,SSE,149,0.0,0.0,42,0.00,BKN,,0.00,302.0,WeatherDisplay:10.37,2013-08-25 21:44:00,
2013-08-25 17:49:00,80.1,54.3,30.29,SSE,147,1.4,4.6,41,0.00,BKN,,0.00,285.0,WeatherDisplay:10.37,2013-08-25 21:49:00,
2013-08-25 17:54:00,79.8,54.7,30.28,SSE,155,0.9,3.5,42,0.00,BKN,,0.00,272.0,WeatherDisplay:10.37,2013-08-25 21:54:00,
2013-08-25 17:59:00,79.6,54.5,30.28,SSE,152,3.8,6.0,42,0.00,BKN,,0.00,250.0,WeatherDisplay:10.37,2013-08-25 21:59:00,
2013-08-25 18:04:00,79.4,55.0,30.28,SSE,164,0.1,1.2,43,0.00,BKN,,0.00,243.0,WeatherDisplay:10.37,2013-08-25 22:04:00,
2013-08-25 18:09:00,79.4,55.0,30.28,SSE,163,0.4,1.2,43,0.00,BKN,,0.00,232.0,WeatherDisplay:10.37,2013-08-25 22:09:00,
2013-08-25 18:14:00,79.2,53.5,30.28,SSE,163,0.7,4.5,41,0.00,BKN,,0.00,225.0,WeatherDisplay:10.37,2013-08-25 22:14:00,
2013-08-25 18:19:00,79.2,54.1,30.28,SSE,166,1.4,4.6,42,0.00,BKN,,0.00,204.0,WeatherDisplay:10.37,2013-08-25 22:19:00,
2013-08-25 18:24:00,79.0,54.6,30.28,SSE,156,0.1,1.5,43,0.00,BKN,,0.00,179.0,WeatherDisplay:10.37,2013-08-25 22:24:00,
2013-08-25 18:29:00,78.8,53.8,30.28,SSE,164,0.2,1.2,42,0.00,BKN,,0.00,179.0,WeatherDisplay:10.37,2013-08-25 22:29:00,
2013-08-25 18:34:00,78.6,54.9,30.28,SSE,157,0.8,3.5,44,0.00,BKN,,0.00,160.0,WeatherDisplay:10.37,2013-08-25 22:34:00,
2013-08-25 18:39:00,78.5,54.8,30.27,SSE,158,0.7,3.5,44,0.00,BKN,,0.00,149.0,WeatherDisplay:10.37,2013-08-25 22:39:00,
2013-08-25 18:44:00,78.1,55.0,30.28,SSE,163,0.1,1.5,45,0.00,BKN,,0.00,141.0,WeatherDisplay:10.37,2013-08-25 22:44:00,
2013-08-25 18:49:00,77.9,54.8,30.28,SSE,161,0.5,1.5,45,0.00,BKN,,0.00,118.0,WeatherDisplay:10.37,2013-08-25 22:49:00,
2013-08-25 18:54:00,77.9,55.5,30.28,SSE,161,0.2,1.2,46,0.00,BKN,,0.00,102.0,WeatherDisplay:10.37,2013-08-25 22:54:00,
2013-08-25 18:59:00,77.7,55.9,30.27,SSE,161,0.6,3.0,47,0.00,BKN,,0.00,83.0,WeatherDisplay:10.37,2013-08-25 22:59:00,
2013-08-25 19:04:00,77.4,56.2,30.27,SSE,161,0.4,1.5,48,0.00,BKN,,0.00,62.0,WeatherDisplay:10.37,2013-08-25 23:04:00,
2013-08-25 19:09:00,77.0,56.4,30.26,SSE,161,0.2,1.5,49,0.00,BKN,,0.00,49.0,WeatherDisplay:10.37,2013-08-25 23:09:00,
2013-08-25 19:14:00,76.5,56.5,30.26,SSE,161,0.0,0.0,50,0.00,BKN,,0.00,42.0,WeatherDisplay:10.37,2013-08-25 23:14:00,
2013-08-25 19:19:00,76.1,56.1,30.26,SSE,161,0.0,0.0,50,0.00,BKN,,0.00,33.0,WeatherDisplay:10.37,2013-08-25 23:19:00,
2013-08-25 19:24:00,75.8,56.4,30.26,SSE,161,0.0,0.0,51,0.00,BKN,,0.00,25.0,WeatherDisplay:10.37,2013-08-25 23:24:00,
2013-08-25 19:29:00,75.4,56.5,30.26,SSE,161,0.0,0.0,52,0.00,BKN,,0.00,19.0,WeatherDisplay:10.37,2013-08-25 23:29:00,
2013-08-25 19:34:00,74.7,56.4,30.26,SSE,161,0.0,0.0,53,0.00,BKN,,0.00,16.0,WeatherDisplay:10.37,2013-08-25 23:34:00,
2013-08-25 19:39:00,74.4,56.7,30.27,SSE,161,0.0,0.0,54,0.00,BKN,,0.00,12.0,WeatherDisplay:10.37,2013-08-25 23:39:00,
2013-08-25 19:44:00,73.9,56.2,30.26,SSE,161,0.0,0.0,54,0.00,BKN,,0.00,9.0,WeatherDisplay:10.37,2013-08-25 23:44:00,
2013-08-25 19:49:00,73.5,56.3,30.27,SSE,161,0.0,0.0,55,0.00,BKN,,0.00,0.0,WeatherDisplay:10.37,2013-08-25 23:49:00,
2013-08-25 19:54:00,72.8,56.7,30.26,SSE,161,0.0,0.0,57,0.00,BKN,,0.00,0.0,WeatherDisplay:10.37,2013-08-25 23:54:00,
2013-08-25 19:59:00,72.3,56.7,30.26,SSE,161,0.0,0.0,58,0.00,BKN,,0.00,0.0,WeatherDisplay:10.37,2013-08-25 23:59:00,
2013-08-25 20:04:00,71.6,56.5,30.26,SSE,161,0.0,0.0,59,0.00,BKN,,0.00,0.0,WeatherDisplay:10.37,2013-08-26 00:04:00,
2013-08-25 20:09:00,70.9,56.3,30.26,SSE,161,0.4,1.5,60,0.00,BKN,,0.00,0.0,WeatherDisplay:10.37,2013-08-26 00:09:00,
2013-08-25 20:14:00,70.8,56.2,30.26,SSE,161,0.0,0.0,60,0.00,BKN,,0.00,0.0,WeatherDisplay:10.37,2013-08-26 00:14:00,
2013-08-25 20:19:00,70.8,56.2,30.26,SSE,161,0.0,0.0,60,0.00,BKN,,0.00,0.0,WeatherDisplay:10.37,2013-08-26 00:19:00,
2013-08-25 20:24:00,70.4,56.3,30.26,SSE,161,0.0,0.0,61,0.00,BKN,,0.00,0.0,WeatherDisplay:10.37,2013-08-26 00:24:00,
2013-08-25 20:29:00,69.9,56.3,30.26,SSE,161,0.0,0.0,62,0.00,BKN,,0.00,0.0,WeatherDisplay:10.37,2013-08-26 00:29:00,
2013-08-25 20:34:00,69.4,56.3,30.26,SSE,161,0.0,0.0,63,0.00,BKN,,0.00,0.0,WeatherDisplay:10.37,2013-08-26 00:34:00,
2013-08-25 20:39:00,69.1,56.4,30.26,SSE,161,0.0,0.0,64,0.00,BKN,,0.00,0.0,WeatherDisplay:10.37,2013-08-26 00:39:00,
2013-08-25 20:44:00,68.9,56.2,30.27,SSE,161,0.0,0.0,64,0.00,BKN,,0.00,0.0,WeatherDisplay:10.37,2013-08-26 00:44:00,
2013-08-25 20:49:00,68.6,55.9,30.27,SSE,161,0.0,0.0,64,0.00,BKN,,0.00,0.0,WeatherDisplay:10.37,2013-08-26 00:49:00,
2013-08-25 20:54:00,68.4,55.7,30.27,SSE,161,0.0,0.0,64,0.00,BKN,,0.00,0.0,WeatherDisplay:10.37,2013-08-26 00:54:00,
2013-08-25 20:59:00,68.3,56.1,30.26,SSE,161,0.0,0.0,65,0.00,BKN,,0.00,0.0,WeatherDisplay:10.37,2013-08-26 00:59:00,
2013-08-25 21:04:00,68.1,56.3,30.26,SSE,161,0.0,0.0,66,0.00,SCT,,0.00,0.0,WeatherDisplay:10.37,2013-08-26 01:04:00,
2013-08-25 21:09:00,67.9,56.1,30.26,SSE,161,0.0,0.0,66,0.00,SCT,,0.00,0.0,WeatherDisplay:10.37,2013-08-26 01:09:00,
2013-08-25 21:14:00,67.8,56.4,30.26,SSE,161,0.0,0.0,67,0.00,SCT,,0.00,0.0,WeatherDisplay:10.37,2013-08-26 01:14:00,
2013-08-25 21:19:00,67.4,56.9,30.27,SSE,161,0.0,0.0,69,0.00,SCT,,0.00,0.0,WeatherDisplay:10.37,2013-08-26 01:19:00,
2013-08-25 21:24:00,67.1,56.6,30.27,SSE,161,0.0,0.0,69,0.00,SCT,,0.00,0.0,WeatherDisplay:10.37,2013-08-26 01:24:00,
2013-08-25 21:29:00,66.6,56.5,30.27,SSE,161,0.0,0.0,70,0.00,SCT,,0.00,0.0,WeatherDisplay:10.37,2013-08-26 01:29:00,
2013-08-25 21:34:00,66.3,57.0,30.28,SSE,161,0.0,0.0,72,0.00,SCT,,0.00,0.0,WeatherDisplay:10.37,2013-08-26 01:34:00,
2013-08-25 21:39:00,66.1,56.8,30.28,SSE,161,0.0,0.0,72,0.00,SCT,,0.00,0.0,WeatherDisplay:10.37,2013-08-26 01:39:00,
2013-08-25 21:44:00,65.6,56.3,30.27,SSE,161,0.0,0.0,72,0.00,SCT,,0.00,0.0,WeatherDisplay:10.37,2013-08-26 01:44:00,
2013-08-25 21:49:00,65.3,56.4,30.28,SSE,161,0.0,0.0,73,0.00,SCT,,0.00,0.0,WeatherDisplay:10.37,2013-08-26 01:49:00,
2013-08-25 21:54:00,65.0,56.5,30.28,SSE,161,0.0,0.0,74,0.00,SCT,,0.00,0.0,WeatherDisplay:10.37,2013-08-26 01:54:00,
2013-08-25 21:59:00,64.8,56.7,30.28,SSE,161,0.0,0.0,75,0.00,SCT,,0.00,0.0,WeatherDisplay:10.37,2013-08-26 01:59:00,
2013-08-25 22:04:00,64.5,56.4,30.28,SSE,161,0.0,0.0,75,0.00,FEW,,0.00,0.0,WeatherDisplay:10.37,2013-08-26 02:04:00,
2013-08-25 22:09:00,64.2,56.5,30.28,SSE,161,0.0,0.0,76,0.00,FEW,,0.00,0.0,WeatherDisplay:10.37,2013-08-26 02:09:00,
2013-08-25 22:14:00,64.0,56.6,30.28,SSE,161,0.0,0.0,77,0.00,FEW,,0.00,0.0,WeatherDisplay:10.37,2013-08-26 02:14:00,
2013-08-25 22:19:00,63.7,56.4,30.28,SSE,161,0.0,0.0,77,0.00,FEW,,0.00,0.0,WeatherDisplay:10.37,2013-08-26 02:19:00,
2013-08-25 22:24:00,63.5,56.5,30.28,SSE,161,0.0,0.0,78,0.00,FEW,,0.00,0.0,WeatherDisplay:10.37,2013-08-26 02:24:00,
2013-08-25 22:29:00,63.4,56.8,30.28,SSE,161,0.0,0.0,79,0.00,FEW,,0.00,0.0,WeatherDisplay:10.37,2013-08-26 02:29:00,
2013-08-25 22:34:00,63.2,56.6,30.29,SSE,161,0.0,0.0,79,0.00,FEW,,0.00,0.0,WeatherDisplay:10.37,2013-08-26 02:34:00,
2013-08-25 22:39:00,62.9,56.3,30.29,SSE,161,0.0,0.0,79,0.00,FEW,,0.00,0.0,WeatherDisplay:10.37,2013-08-26 02:39:00,
2013-08-25 22:44:00,62.9,56.6,30.28,SSE,161,0.0,0.0,80,0.00,FEW,,0.00,0.0,WeatherDisplay:10.37,2013-08-26 02:44:00,
2013-08-25 22:49:00,62.9,57.0,30.28,SSE,161,0.0,0.0,81,0.00,FEW,,0.00,0.0,WeatherDisplay:10.37,2013-08-26 02:49:00,
2013-08-25 22:54:00,62.9,57.0,30.28,SSE,161,0.0,0.0,81,0.00,FEW,,0.00,0.0,WeatherDisplay:10.37,2013-08-26 02:54:00,
2013-08-25 22:59:00,62.7,57.1,30.28,SSE,161,0.0,0.0,82,0.00,FEW,,0.00,0.0,WeatherDisplay:10.37,2013-08-26 02:59:00,
2013-08-25 23:04:00,62.6,57.0,30.28,SSE,161,0.0,0.0,82,0.00,FEW,,0.00,0.0,WeatherDisplay:10.37,2013-08-26 03:04:00,
2013-08-25 23:09:00,62.3,56.7,30.28,SSE,161,0.0,0.0,82,0.00,FEW,,0.00,0.0,WeatherDisplay:10.37,2013-08-26 03:09:00,
2013-08-25 23:14:00,62.1,56.5,30.28,SSE,161,0.0,0.0,82,0.00,FEW,,0.00,0.0,WeatherDisplay:10.37,2013-08-26 03:14:00,
2013-08-25 23:19:00,61.8,56.6,30.28,SSE,161,0.0,0.0,83,0.00,FEW,,0.00,0.0,WeatherDisplay:10.37,2013-08-26 03:19:00,
2013-08-25 23:24:00,61.8,56.6,30.29,SSE,161,0.0,0.0,83,0.00,FEW,,0.00,0.0,WeatherDisplay:10.37,2013-08-26 03:24:00,
2013-08-25 23:29:00,62.0,57.1,30.28,SSE,161,0.0,0.0,84,0.00,FEW,,0.00,0.0,WeatherDisplay:10.37,2013-08-26 03:29:00,
2013-08-25 23:35:00,61.8,56.9,30.28,SSE,161,0.0,0.0,84,0.00,FEW,,0.00,0.0,WeatherDisplay:10.37,2013-08-26 03:35:00,
2013-08-25 23:40:00,61.5,56.6,30.28,SSE,161,0.0,0.0,84,0.00,FEW,,0.00,0.0,WeatherDisplay:10.37,2013-08-26 03:40:00,
2013-08-25 23:45:00,61.2,56.3,30.28,SSE,161,0.0,0.0,84,0.00,FEW,,0.00,0.0,WeatherDisplay:10.37,2013-08-26 03:45:00,
2013-08-25 23:50:00,61.0,56.1,30.28,SSE,161,0.0,0.0,84,0.00,FEW,,0.00,0.0,WeatherDisplay:10.37,2013-08-26 03:50:00,
2013-08-25 23:55:00,60.9,56.0,30.28,SSE,161,0.0,0.0,84,0.00,FEW,,0.00,0.0,WeatherDisplay:10.37,2013-08-26 03:55:00,